createdAt,value
2023-04-29T00:02:45.323Z,100934.00
2023-04-29T00:05:48.789Z,100931.50
2023-04-29T00:08:52.502Z,100928.06
2023-04-29T00:11:56.675Z,100925.38
2023-04-29T00:14:59.538Z,100920.13
2023-04-29T00:18:02.401Z,100906.63
2023-04-29T00:21:06.573Z,100908.22
2023-04-29T00:24:09.284Z,100906.38
2023-04-29T00:27:13.395Z,100905.28
2023-04-29T00:30:16.197Z,100909.69
2023-04-29T00:33:18.939Z,100905.22
2023-04-29T00:36:21.707Z,100905.28
2023-04-29T00:39:24.584Z,100909.94
2023-04-29T00:42:30.179Z,100905.44
2023-04-29T00:45:33.111Z,100907.22
2023-04-29T00:48:35.891Z,100910.84
2023-04-29T00:51:39.474Z,100903.75
2023-04-29T00:54:42.643Z,100900.19
2023-04-29T00:57:48.266Z,100901.91
2023-04-29T01:00:51.146Z,100899.16
2023-04-29T01:03:54.095Z,100900.19
2023-04-29T01:07:06.297Z,100894.88
2023-04-29T01:10:13.780Z,100891.34
2023-04-29T01:13:30.430Z,100894.88
2023-04-29T01:16:39.876Z,100885.91
2023-04-29T01:19:49.239Z,100885.91
2023-04-29T01:22:52.493Z,100871.66
2023-04-29T01:25:56.899Z,100863.66
2023-04-29T01:29:36.365Z,100858.31
2023-04-29T01:32:48.925Z,100856.59
2023-04-29T01:36:07.824Z,100855.75
2023-04-29T01:39:16.328Z,100861.97
2023-04-29T01:42:29.137Z,100863.84
2023-04-29T01:45:35.751Z,100878.97
2023-04-29T01:48:38.716Z,100872.06
2023-04-29T01:51:41.553Z,100879.28
2023-04-29T01:54:44.445Z,100873.97
2023-04-29T01:57:48.641Z,100865.00
2023-04-29T02:01:14.339Z,100867.63
2023-04-29T02:04:17.354Z,100873.78
2023-04-29T02:07:20.489Z,100871.13
2023-04-29T02:10:24.332Z,100861.31
2023-04-29T02:13:36.940Z,100853.41
2023-04-29T02:16:40.267Z,100853.41
2023-04-29T02:19:43.470Z,100854.34
2023-04-29T02:22:47.225Z,100854.34
2023-04-29T02:25:50.001Z,100848.16
2023-04-29T02:28:54.889Z,100847.38
2023-04-29T02:31:57.736Z,100844.72
2023-04-29T02:35:00.935Z,100838.53
2023-04-29T02:38:04.608Z,100841.19
2023-04-29T02:41:07.403Z,100843.06
2023-04-29T02:44:11.490Z,100851.13
2023-04-29T02:47:14.325Z,100842.13
2023-04-29T02:50:17.313Z,100844.72
2023-04-29T02:53:20.988Z,100837.66
2023-04-29T02:56:24.329Z,100844.72
2023-04-29T02:59:28.427Z,100845.56
2023-04-29T03:02:31.407Z,100835.84
2023-04-29T03:05:35.825Z,100844.94
2023-04-29T03:08:38.633Z,100838.84
2023-04-29T03:11:41.418Z,100845.09
2023-04-29T03:14:45.563Z,100838.97
2023-04-29T03:17:49.413Z,100839.94
2023-04-29T03:20:52.423Z,100841.72
2023-04-29T03:23:55.173Z,100831.94
2023-04-29T03:27:04.852Z,100830.19
2023-04-29T03:30:11.588Z,100830.97
2023-04-29T03:33:21.396Z,100820.22
2023-04-29T03:36:24.699Z,100828.31
2023-04-29T03:39:39.935Z,100824.72
2023-04-29T03:42:43.182Z,100823.78
2023-04-29T03:45:47.398Z,100836.16
2023-04-29T03:48:55.982Z,100833.50
2023-04-29T03:51:59.566Z,100831.63
2023-04-29T03:55:02.295Z,100831.63
2023-04-29T03:58:05.305Z,100835.13
2023-04-29T04:01:09.705Z,100832.47
2023-04-29T04:04:19.426Z,100837.78
2023-04-29T04:07:25.480Z,100849.31
2023-04-29T04:10:51.525Z,100839.53
2023-04-29T04:14:08.590Z,100833.34
2023-04-29T04:17:13.049Z,100847.53
2023-04-29T04:20:15.994Z,100839.53
2023-04-29T04:23:19.198Z,100845.72
2023-04-29T04:26:23.067Z,100851.06
2023-04-29T04:29:28.713Z,100842.19
2023-04-29T04:32:47.634Z,100842.28
2023-04-29T04:35:50.652Z,100833.34
2023-04-29T04:38:53.683Z,100840.41
2023-04-29T04:41:57.409Z,100838.66
2023-04-29T04:45:02.004Z,100838.66
2023-04-29T04:48:19.995Z,100828.00
2023-04-29T04:51:26.036Z,100837.78
2023-04-29T04:54:28.842Z,100832.47
2023-04-29T04:57:41.075Z,100836.94
2023-04-29T05:00:45.747Z,100845.88
2023-04-29T05:03:50.217Z,100840.53
2023-04-29T05:06:53.158Z,100836.09
2023-04-29T05:09:58.075Z,100840.53
2023-04-29T05:13:00.922Z,100845.88
2023-04-29T05:16:06.483Z,100844.06
2023-04-29T05:19:17.190Z,100847.63
2023-04-29T05:22:21.153Z,100858.28
2023-04-29T05:25:24.110Z,100851.19
2023-04-29T05:28:28.210Z,100850.34
2023-04-29T05:31:33.461Z,100860.16
2023-04-29T05:34:40.598Z,100861.16
2023-04-29T05:37:43.647Z,100862.09
2023-04-29T05:41:06.728Z,100863.91
2023-04-29T05:44:21.061Z,100863.91
2023-04-29T05:47:23.969Z,100870.09
2023-04-29T05:50:28.290Z,100871.75
2023-04-29T05:53:31.535Z,100869.06
2023-04-29T05:56:34.604Z,100869.94
2023-04-29T05:59:37.433Z,100872.69
2023-04-29T06:02:54.868Z,100879.72
2023-04-29T06:06:03.149Z,100881.53
2023-04-29T06:09:26.410Z,100878.94
2023-04-29T06:12:31.373Z,100886.03
2023-04-29T06:15:34.967Z,100882.50
2023-04-29T06:18:38.102Z,100893.16
2023-04-29T06:21:42.251Z,100890.47
2023-04-29T06:24:45.015Z,100892.19
2023-04-29T06:27:50.934Z,100902.78
2023-04-29T06:30:56.996Z,100909.84
2023-04-29T06:34:00.234Z,100900.91
2023-04-29T06:37:04.754Z,100901.84
2023-04-29T06:40:36.848Z,100908.91
2023-04-29T06:43:58.181Z,100905.38
2023-04-29T06:47:13.661Z,100911.56
2023-04-29T06:50:23.902Z,100915.16
2023-04-29T06:53:28.794Z,100924.13
2023-04-29T06:56:31.541Z,100924.97
2023-04-29T06:59:34.319Z,100934.78
2023-04-29T07:02:40.336Z,100931.25
2023-04-29T07:05:45.395Z,100929.44
2023-04-29T07:08:49.591Z,100937.34
2023-04-29T07:11:52.479Z,100940.03
2023-04-29T07:14:56.080Z,100950.59
2023-04-29T07:18:00.521Z,100955.06
2023-04-29T07:21:03.383Z,100949.72
2023-04-29T07:24:08.108Z,100953.25
2023-04-29T07:27:10.895Z,100954.22
2023-04-29T07:30:13.983Z,100963.13
2023-04-29T07:33:17.165Z,100963.13
2023-04-29T07:36:19.983Z,100973.81
2023-04-29T07:39:24.125Z,100975.59
2023-04-29T07:42:31.325Z,100981.88
2023-04-29T07:45:35.551Z,100984.47
2023-04-29T07:48:39.417Z,100981.78
2023-04-29T07:51:42.471Z,100998.56
2023-04-29T07:54:48.093Z,100995.03
2023-04-29T07:57:50.856Z,101000.31
2023-04-29T08:00:53.749Z,100996.88
2023-04-29T08:03:56.840Z,101003.03
2023-04-29T08:07:02.774Z,100999.53
2023-04-29T08:10:08.180Z,101000.44
2023-04-29T08:13:13.256Z,101013.69
2023-04-29T08:16:16.075Z,101017.22
2023-04-29T08:19:18.905Z,101021.66
2023-04-29T08:22:21.676Z,101020.84
2023-04-29T08:25:26.995Z,101029.69
2023-04-29T08:28:29.903Z,101040.31
2023-04-29T08:31:32.677Z,101041.22
2023-04-29T08:34:36.496Z,101051.88
2023-04-29T08:37:39.408Z,101051.00
2023-04-29T08:40:46.565Z,101055.50
2023-04-29T08:43:49.432Z,101062.72
2023-04-29T08:46:52.495Z,101075.25
2023-04-29T08:49:55.308Z,101090.28
2023-04-29T08:52:58.171Z,101082.28
2023-04-29T08:56:09.919Z,101093.81
2023-04-29T08:59:14.994Z,101098.06
2023-04-29T09:02:18.666Z,101096.91
2023-04-29T09:05:21.930Z,101104.78
2023-04-29T09:08:25.325Z,101108.97
2023-04-29T09:11:30.898Z,101111.44
2023-04-29T09:14:34.488Z,101121.00
2023-04-29T09:17:42.195Z,101129.75
2023-04-29T09:20:45.146Z,101129.59
2023-04-29T09:23:49.435Z,101130.47
2023-04-29T09:26:53.583Z,101129.50
2023-04-29T09:30:02.347Z,101136.47
2023-04-29T09:33:07.527Z,101147.03
2023-04-29T09:36:10.634Z,101148.72
2023-04-29T09:39:15.289Z,101159.28
2023-04-29T09:42:19.613Z,101155.63
2023-04-29T09:45:34.600Z,101168.00
2023-04-29T09:48:38.265Z,101173.28
2023-04-29T09:51:53.461Z,101174.13
2023-04-29T09:55:06.611Z,101177.75
2023-04-29T09:58:28.949Z,101176.00
2023-04-29T10:01:32.024Z,101179.75
2023-04-29T10:04:38.798Z,101186.06
2023-04-29T10:07:43.847Z,101193.25
2023-04-29T10:10:48.100Z,101185.38
2023-04-29T10:13:53.241Z,101193.47
2023-04-29T10:17:01.697Z,101200.59
2023-04-29T10:20:07.417Z,101210.38
2023-04-29T10:23:14.244Z,101200.69
2023-04-29T10:26:19.440Z,101208.72
2023-04-29T10:29:24.062Z,101208.72
2023-04-29T10:32:37.028Z,101214.06
2023-04-29T10:35:48.517Z,101212.34
2023-04-29T10:38:55.737Z,101212.34
2023-04-29T10:41:59.788Z,101222.13
2023-04-29T10:45:24.791Z,101216.81
2023-04-29T10:48:27.575Z,101225.75
2023-04-29T10:51:32.715Z,101222.22
2023-04-29T10:54:35.464Z,101230.22
2023-04-29T10:57:38.207Z,101227.63
2023-04-29T11:00:42.360Z,101233.81
2023-04-29T11:03:54.761Z,101233.81
2023-04-29T11:06:59.337Z,101232.09
2023-04-29T11:10:03.214Z,101235.66
2023-04-29T11:13:26.137Z,101226.75
2023-04-29T11:16:30.405Z,101224.97
2023-04-29T11:19:34.736Z,101228.47
2023-04-29T11:22:38.084Z,101233.88
2023-04-29T11:25:40.865Z,101232.97
2023-04-29T11:28:44.692Z,101233.88
2023-04-29T11:31:48.888Z,101236.47
2023-04-29T11:34:51.882Z,101234.75
2023-04-29T11:37:55.025Z,101242.75
2023-04-29T11:40:58.168Z,101242.75
2023-04-29T11:44:03.512Z,101248.09
2023-04-29T11:47:08.166Z,101253.41
2023-04-29T11:50:11.376Z,101256.09
2023-04-29T11:53:14.222Z,101265.78
2023-04-29T11:56:17.185Z,101264.97
2023-04-29T11:59:20.656Z,101280.00
2023-04-29T12:02:25.048Z,101278.22
2023-04-29T12:05:28.115Z,101288.97
2023-04-29T12:08:33.628Z,101293.34
2023-04-29T12:11:37.637Z,101299.63
2023-04-29T12:14:41.451Z,101297.88
2023-04-29T12:17:46.756Z,101299.63
2023-04-29T12:20:51.435Z,101307.66
2023-04-29T12:23:54.559Z,101306.75
2023-04-29T12:26:59.623Z,101311.22
2023-04-29T12:30:02.404Z,101313.00
2023-04-29T12:33:09.660Z,101312.09
2023-04-29T12:36:18.714Z,101317.41
2023-04-29T12:39:21.485Z,101316.53
2023-04-29T12:42:24.207Z,101326.34
2023-04-29T12:45:28.909Z,101327.28
2023-04-29T12:48:34.144Z,101331.81
2023-04-29T12:51:37.706Z,101336.19
2023-04-29T12:54:43.514Z,101338.88
2023-04-29T12:57:47.131Z,101335.31
2023-04-29T13:00:50.408Z,101337.16
2023-04-29T13:03:54.980Z,101336.19
2023-04-29T13:07:00.537Z,101331.81
2023-04-29T13:10:07.059Z,101328.19
2023-04-29T13:13:10.603Z,101334.41
2023-04-29T13:16:13.580Z,101334.34
2023-04-29T13:19:28.131Z,101338.75
2023-04-29T13:22:35.425Z,101345.78
2023-04-29T13:25:38.228Z,101353.75
2023-04-29T13:28:41.334Z,101360.81
2023-04-29T13:31:44.267Z,101355.47
2023-04-29T13:34:48.452Z,101363.41
2023-04-29T13:37:51.176Z,101364.28
2023-04-29T13:40:55.176Z,101363.41
2023-04-29T13:43:58.921Z,101367.88
2023-04-29T13:47:02.028Z,101368.72
2023-04-29T14:02:30.689Z,101377.53
2023-04-29T14:05:35.218Z,101382.03
2023-04-29T14:08:38.208Z,101380.16
2023-04-29T14:11:41.231Z,101384.63
2023-04-29T14:14:44.016Z,101371.28
2023-04-29T14:17:46.838Z,101389.94
2023-04-29T14:20:51.088Z,101382.88
2023-04-29T14:23:54.010Z,101391.81
2023-04-29T14:26:57.893Z,101381.16
2023-04-29T14:30:00.696Z,101391.00
2023-04-29T14:33:04.082Z,101388.34
2023-04-29T14:36:08.824Z,101395.47
2023-04-29T14:39:11.704Z,101391.94
2023-04-29T14:42:15.090Z,101399.00
2023-04-29T14:45:18.242Z,101399.00
2023-04-29T14:48:20.990Z,101395.41
2023-04-29T14:51:25.593Z,101400.72
2023-04-29T14:54:28.338Z,101409.69
2023-04-29T14:57:31.279Z,101404.34
2023-04-29T15:00:34.007Z,101400.72
2023-04-29T15:03:43.480Z,101416.72
2023-04-29T15:06:49.045Z,101415.00
2023-04-29T15:09:51.800Z,101415.00
2023-04-29T15:12:54.525Z,101419.47
2023-04-29T15:15:57.493Z,101415.94
2023-04-29T15:19:00.963Z,101409.75
2023-04-29T15:22:05.080Z,101418.59
2023-04-29T15:25:09.492Z,101429.25
2023-04-29T15:28:12.438Z,101416.81
2023-04-29T15:31:15.353Z,101426.56
2023-04-29T15:34:18.163Z,101416.72
2023-04-29T15:37:23.156Z,101420.19
2023-04-29T15:40:26.744Z,101429.94
2023-04-29T15:43:29.817Z,101431.69
2023-04-29T15:46:32.832Z,101434.38
2023-04-29T15:49:35.627Z,101437.03
2023-04-29T15:52:39.965Z,101447.72
2023-04-29T15:55:42.774Z,101455.72
2023-04-29T15:58:45.778Z,101459.28
2023-04-29T16:01:48.604Z,101446.88
2023-04-29T16:04:51.425Z,101457.53
2023-04-29T16:07:55.553Z,101464.63
2023-04-29T16:10:58.385Z,101461.09
2023-04-29T16:14:01.325Z,101464.63
2023-04-29T16:17:05.587Z,101461.97
2023-04-29T16:20:09.879Z,101463.75
2023-04-29T16:23:14.130Z,101467.38
2023-04-29T16:26:17.191Z,101464.75
2023-04-29T16:29:19.958Z,101472.75
2023-04-29T16:32:22.907Z,101470.16
2023-04-29T16:35:26.648Z,101471.03
2023-04-29T16:38:30.778Z,101479.03
2023-04-29T16:41:33.561Z,101481.63
2023-04-29T16:44:36.297Z,101477.16
2023-04-29T16:47:40.828Z,101479.81
2023-04-29T16:50:43.748Z,101479.75
2023-04-29T16:53:47.919Z,101480.63
2023-04-29T16:56:51.297Z,101487.72
2023-04-29T16:59:56.884Z,101493.88
2023-04-29T17:03:00.977Z,101498.38
2023-04-29T17:06:04.927Z,101493.88
2023-04-29T17:09:09.446Z,101505.44
2023-04-29T17:12:12.262Z,101500.09
2023-04-29T17:15:15.059Z,101504.50
2023-04-29T17:18:20.015Z,101510.69
2023-04-29T17:21:24.766Z,101515.19
2023-04-29T17:24:29.658Z,101525.78
2023-04-29T17:27:32.390Z,101525.72
2023-04-29T17:30:35.197Z,101531.13
2023-04-29T17:33:39.760Z,101528.53
2023-04-29T17:36:42.569Z,101537.38
2023-04-29T17:39:46.652Z,101539.19
2023-04-29T17:42:49.993Z,101539.19
2023-04-29T17:45:52.974Z,101548.03
2023-04-29T17:48:55.829Z,101549.88
2023-04-29T17:51:59.918Z,101552.56
2023-04-29T17:55:04.161Z,101560.53
2023-04-29T17:58:07.432Z,101557.91
2023-04-29T18:01:10.277Z,101569.44
2023-04-29T18:04:13.589Z,101565.00
2023-04-29T18:07:16.836Z,101569.44
2023-04-29T18:10:21.076Z,101573.88
2023-04-29T18:13:26.559Z,101573.91
2023-04-29T18:16:30.023Z,101575.66
2023-04-29T18:19:32.844Z,101581.00
2023-04-29T18:22:35.748Z,101581.00
2023-04-29T18:25:40.345Z,101591.59
2023-04-29T18:28:43.131Z,101592.53
2023-04-29T18:31:46.273Z,101594.41
2023-04-29T18:34:49.228Z,101594.41
2023-04-29T18:37:51.979Z,101604.19
2023-04-29T18:40:56.316Z,101605.91
2023-04-29T18:43:59.135Z,101610.41
2023-04-29T18:47:02.026Z,101610.34
2023-04-29T18:50:05.158Z,101614.84
2023-04-29T18:53:08.037Z,101622.78
2023-04-29T18:56:12.266Z,101629.00
2023-04-29T18:59:18.903Z,101632.59
2023-04-29T19:02:21.693Z,101639.75
2023-04-29T19:05:24.683Z,101646.91
2023-04-29T19:08:28.672Z,101651.31
2023-04-29T19:11:32.876Z,101650.44
2023-04-29T19:14:35.890Z,101659.25
2023-04-29T19:17:38.701Z,101667.31
2023-04-29T19:20:41.960Z,101670.81
2023-04-29T19:23:44.894Z,101667.22
2023-04-29T19:26:48.985Z,101674.28
2023-04-29T19:29:51.763Z,101684.84
2023-04-29T19:32:54.618Z,101688.34
2023-04-29T19:35:57.616Z,101686.56
2023-04-29T19:39:02.151Z,101698.13
2023-04-29T19:42:06.398Z,101695.50
2023-04-29T19:45:10.208Z,101686.56
2023-04-29T19:48:13.009Z,101697.22
2023-04-29T19:51:16.045Z,101696.34
2023-04-29T19:54:19.083Z,101701.75
2023-04-29T19:57:23.211Z,101703.50
2023-04-29T20:00:26.182Z,101702.72
2023-04-29T20:03:28.925Z,101704.44
2023-04-29T20:06:32.095Z,101711.53
2023-04-29T20:09:35.172Z,101714.19
2023-04-29T20:12:40.439Z,101723.03
2023-04-29T20:15:43.189Z,101726.56
2023-04-29T20:18:45.918Z,101730.19
2023-04-29T20:21:48.688Z,101739.03
2023-04-29T20:24:51.621Z,101738.19
2023-04-29T20:27:56.819Z,101745.25
2023-04-29T20:30:59.589Z,101755.13
2023-04-29T20:34:02.396Z,101752.56
2023-04-29T20:37:06.334Z,101757.09
2023-04-29T20:40:10.623Z,101756.25
2023-04-29T20:43:14.775Z,101766.13
2023-04-29T20:49:20.637Z,101766.13
2023-04-29T20:52:23.958Z,101768.78
2023-04-29T20:55:26.962Z,101770.53
2023-04-29T20:58:31.033Z,101774.00
2023-04-29T21:01:34.901Z,101777.56
2023-04-29T21:04:38.351Z,101782.91
2023-04-29T21:07:41.136Z,101790.94
2023-04-29T21:10:44.049Z,101791.88
2023-04-29T21:13:50.276Z,101788.25
2023-04-29T21:16:53.116Z,101803.34
2023-04-29T21:19:56.920Z,101806.03
2023-04-29T21:22:59.690Z,101807.88
2023-04-29T21:26:02.427Z,101814.19
2023-04-29T21:29:06.584Z,101814.25
2023-04-29T21:32:09.688Z,101814.34
2023-04-29T21:35:12.480Z,101830.41
2023-04-29T21:38:15.492Z,101827.69
2023-04-29T21:41:22.515Z,101821.50
2023-04-29T21:44:26.754Z,101825.91
2023-04-29T21:47:29.998Z,101829.44
2023-04-29T21:50:33.833Z,101829.44
2023-04-29T21:53:38.149Z,101831.16
2023-04-29T21:56:40.983Z,101839.97
2023-04-29T21:59:45.205Z,101841.84
2023-04-29T22:02:47.968Z,101845.31
2023-04-29T22:05:50.756Z,101842.66
2023-04-29T22:08:53.644Z,101850.72
2023-04-29T22:11:56.462Z,101836.50
2023-04-29T22:15:00.647Z,101855.16
2023-04-29T22:18:03.444Z,101846.31
2023-04-29T22:21:06.604Z,101850.72
2023-04-29T22:24:10.105Z,101860.41
2023-04-29T22:27:12.803Z,101859.47
2023-04-29T22:30:18.006Z,101868.41
2023-04-29T22:33:21.224Z,101871.06
2023-04-29T22:36:23.993Z,101879.06
2023-04-29T22:42:47.549Z,101887.06
2023-04-29T22:45:56.107Z,101879.06
2023-04-29T22:48:58.953Z,101887.03
2023-04-29T22:52:01.763Z,101890.66
2023-04-29T22:55:04.945Z,101891.59
2023-04-29T22:58:07.684Z,101892.50
2023-04-29T23:01:12.239Z,101889.81
2023-04-29T23:04:15.477Z,101902.13
2023-04-29T23:10:38.870Z,101897.75
2023-04-29T23:13:42.112Z,101905.63
2023-04-29T23:16:46.548Z,101910.88
2023-04-29T23:19:49.541Z,101905.63
2023-04-29T23:22:52.566Z,101912.94
2023-04-29T23:25:55.664Z,101910.13
2023-04-29T23:28:58.809Z,101911.69
2023-04-29T23:32:03.269Z,101907.28
2023-04-29T23:35:06.760Z,101912.56
2023-04-29T23:38:09.552Z,101912.50
2023-04-29T23:41:12.335Z,101910.78
2023-04-29T23:44:15.048Z,101901.06
2023-04-29T23:47:19.178Z,101908.25
2023-04-29T23:50:21.973Z,101912.00
2023-04-29T23:53:24.860Z,101916.47
2023-04-29T23:56:29.063Z,101921.03
2023-04-29T23:59:31.966Z,101916.66
